sensor_id;sensor_type;location;lat;lon;timestamp;P1;durP1;ratioP1;P2;durP2;ratioP2
39346;SDS011;26262;49.836;6.632;2024-03-22T00:00:08;408.02;;;179.25;;
39346;SDS011;26262;49.836;6.632;2024-03-22T00:02:36;402.60;;;181.82;;
39346;SDS011;26262;49.836;6.632;2024-03-22T00:05:02;414.80;;;184.15;;
39346;SDS011;26262;49.836;6.632;2024-03-22T00:07:28;414.53;;;191.20;;
39346;SDS011;26262;49.836;6.632;2024-03-22T00:09:54;412.48;;;180.25;;
39346;SDS011;26262;49.836;6.632;2024-03-22T00:12:19;405.23;;;169.70;;
39346;SDS011;26262;49.836;6.632;2024-03-22T00:14:45;403.93;;;183.77;;
39346;SDS011;26262;49.836;6.632;2024-03-22T00:17:10;356.05;;;129.30;;
39346;SDS011;26262;49.836;6.632;2024-03-22T00:19:36;225.85;;;86.55;;
39346;SDS011;26262;49.836;6.632;2024-03-22T00:22:01;363.80;;;143.60;;
39346;SDS011;26262;49.836;6.632;2024-03-22T00:24:27;27.48;;;23.35;;
39346;SDS011;26262;49.836;6.632;2024-03-22T00:26:52;388.03;;;164.53;;
39346;SDS011;26262;49.836;6.632;2024-03-22T00:29:18;345.53;;;126.37;;
39346;SDS011;26262;49.836;6.632;2024-03-22T00:31:43;8.90;;;5.35;;
39346;SDS011;26262;49.836;6.632;2024-03-22T00:34:09;355.33;;;127.33;;
39346;SDS011;26262;49.836;6.632;2024-03-22T00:36:34;325.00;;;153.82;;
39346;SDS011;26262;49.836;6.632;2024-03-22T00:39:00;386.63;;;164.40;;
39346;SDS011;26262;49.836;6.632;2024-03-22T00:41:25;392.63;;;172.63;;
39346;SDS011;26262;49.836;6.632;2024-03-22T00:43:51;402.40;;;185.23;;
39346;SDS011;26262;49.836;6.632;2024-03-22T00:46:16;402.17;;;187.47;;
39346;SDS011;26262;49.836;6.632;2024-03-22T00:48:42;391.87;;;177.80;;
39346;SDS011;26262;49.836;6.632;2024-03-22T00:51:08;390.87;;;167.33;;
39346;SDS011;26262;49.836;6.632;2024-03-22T00:53:33;402.07;;;203.47;;
39346;SDS011;26262;49.836;6.632;2024-03-22T00:55:59;307.20;;;150.65;;
39346;SDS011;26262;49.836;6.632;2024-03-22T00:58:27;269.95;;;120.47;;
39346;SDS011;26262;49.836;6.632;2024-03-22T01:00:53;35.33;;;21.98;;
39346;SDS011;26262;49.836;6.632;2024-03-22T01:03:19;36.92;;;34.13;;
39346;SDS011;26262;49.836;6.632;2024-03-22T01:05:45;156.70;;;87.05;;
39346;SDS011;26262;49.836;6.632;2024-03-22T01:08:11;12.30;;;6.50;;
39346;SDS011;26262;49.836;6.632;2024-03-22T01:10:37;66.22;;;59.10;;
39346;SDS011;26262;49.836;6.632;2024-03-22T01:13:02;33.63;;;30.02;;
39346;SDS011;26262;49.836;6.632;2024-03-22T01:15:28;78.97;;;71.15;;
39346;SDS011;26262;49.836;6.632;2024-03-22T01:17:53;33.88;;;31.05;;
39346;SDS011;26262;49.836;6.632;2024-03-22T01:20:19;36.88;;;33.40;;
39346;SDS011;26262;49.836;6.632;2024-03-22T01:22:45;71.22;;;65.32;;
39346;SDS011;26262;49.836;6.632;2024-03-22T01:25:10;135.63;;;121.00;;
39346;SDS011;26262;49.836;6.632;2024-03-22T01:27:36;374.92;;;164.27;;
39346;SDS011;26262;49.836;6.632;2024-03-22T01:30:02;17.98;;;16.08;;
39346;SDS011;26262;49.836;6.632;2024-03-22T01:32:27;91.82;;;73.25;;
39346;SDS011;26262;49.836;6.632;2024-03-22T01:34:53;20.40;;;11.50;;
39346;SDS011;26262;49.836;6.632;2024-03-22T01:37:18;153.57;;;107.05;;
39346;SDS011;26262;49.836;6.632;2024-03-22T01:39:44;23.95;;;21.77;;
39346;SDS011;26262;49.836;6.632;2024-03-22T01:42:09;20.08;;;14.82;;
39346;SDS011;26262;49.836;6.632;2024-03-22T01:44:35;34.15;;;23.77;;
39346;SDS011;26262;49.836;6.632;2024-03-22T01:47:00;14.52;;;9.68;;
39346;SDS011;26262;49.836;6.632;2024-03-22T01:49:26;21.10;;;9.30;;
39346;SDS011;26262;49.836;6.632;2024-03-22T01:51:52;15.98;;;14.00;;
39346;SDS011;26262;49.836;6.632;2024-03-22T01:54:19;92.47;;;86.50;;
39346;SDS011;26262;49.836;6.632;2024-03-22T01:56:45;21.15;;;16.67;;
39346;SDS011;26262;49.836;6.632;2024-03-22T01:59:11;10.98;;;7.35;;
39346;SDS011;26262;49.836;6.632;2024-03-22T02:01:37;156.27;;;135.95;;
39346;SDS011;26262;49.836;6.632;2024-03-22T02:04:03;127.80;;;62.00;;
39346;SDS011;26262;49.836;6.632;2024-03-22T02:06:29;386.30;;;142.52;;
39346;SDS011;26262;49.836;6.632;2024-03-22T02:08:55;97.28;;;76.72;;
39346;SDS011;26262;49.836;6.632;2024-03-22T02:11:22;26.05;;;16.15;;
39346;SDS011;26262;49.836;6.632;2024-03-22T02:13:48;384.48;;;148.75;;
39346;SDS011;26262;49.836;6.632;2024-03-22T02:16:13;12.70;;;8.27;;
39346;SDS011;26262;49.836;6.632;2024-03-22T02:18:39;296.90;;;135.93;;
39346;SDS011;26262;49.836;6.632;2024-03-22T02:21:04;135.18;;;71.03;;
39346;SDS011;26262;49.836;6.632;2024-03-22T02:23:37;11.98;;;10.77;;
39346;SDS011;26262;49.836;6.632;2024-03-22T02:26:04;9.30;;;5.80;;
39346;SDS011;26262;49.836;6.632;2024-03-22T02:28:30;8.10;;;5.55;;
39346;SDS011;26262;49.836;6.632;2024-03-22T02:31:00;10.18;;;5.97;;
39346;SDS011;26262;49.836;6.632;2024-03-22T02:33:27;35.92;;;22.33;;
39346;SDS011;26262;49.836;6.632;2024-03-22T02:35:52;21.80;;;9.98;;
39346;SDS011;26262;49.836;6.632;2024-03-22T02:38:18;9.18;;;7.25;;
39346;SDS011;26262;49.836;6.632;2024-03-22T02:40:44;10.43;;;6.60;;
39346;SDS011;26262;49.836;6.632;2024-03-22T02:43:10;355.80;;;149.90;;
39346;SDS011;26262;49.836;6.632;2024-03-22T02:45:36;11.13;;;8.88;;
39346;SDS011;26262;49.836;6.632;2024-03-22T02:48:02;398.60;;;181.88;;
39346;SDS011;26262;49.836;6.632;2024-03-22T02:50:27;394.70;;;184.93;;
39346;SDS011;26262;49.836;6.632;2024-03-22T02:52:53;287.05;;;194.35;;
39346;SDS011;26262;49.836;6.632;2024-03-22T02:55:18;389.15;;;204.73;;
39346;SDS011;26262;49.836;6.632;2024-03-22T02:57:44;177.45;;;158.23;;
39346;SDS011;26262;49.836;6.632;2024-03-22T03:00:10;9.80;;;5.68;;
39346;SDS011;26262;49.836;6.632;2024-03-22T03:02:36;7.95;;;4.68;;
39346;SDS011;26262;49.836;6.632;2024-03-22T03:05:01;101.45;;;91.22;;
39346;SDS011;26262;49.836;6.632;2024-03-22T03:07:27;81.45;;;74.88;;
39346;SDS011;26262;49.836;6.632;2024-03-22T03:09:53;122.85;;;72.55;;
39346;SDS011;26262;49.836;6.632;2024-03-22T03:12:18;20.75;;;16.52;;
39346;SDS011;26262;49.836;6.632;2024-03-22T03:14:44;27.08;;;21.92;;
39346;SDS011;26262;49.836;6.632;2024-03-22T03:17:09;27.77;;;25.10;;
39346;SDS011;26262;49.836;6.632;2024-03-22T03:19:35;74.28;;;48.72;;
39346;SDS011;26262;49.836;6.632;2024-03-22T03:22:01;85.82;;;76.38;;
39346;SDS011;26262;49.836;6.632;2024-03-22T03:24:27;117.85;;;96.68;;
39346;SDS011;26262;49.836;6.632;2024-03-22T03:26:52;17.05;;;13.00;;
39346;SDS011;26262;49.836;6.632;2024-03-22T03:29:18;46.63;;;30.40;;
39346;SDS011;26262;49.836;6.632;2024-03-22T03:31:44;138.18;;;124.43;;
39346;SDS011;26262;49.836;6.632;2024-03-22T03:34:10;184.63;;;125.88;;
39346;SDS011;26262;49.836;6.632;2024-03-22T03:36:35;229.95;;;197.07;;
39346;SDS011;26262;49.836;6.632;2024-03-22T03:39:01;207.32;;;180.65;;
39346;SDS011;26262;49.836;6.632;2024-03-22T03:41:27;164.30;;;143.65;;
39346;SDS011;26262;49.836;6.632;2024-03-22T03:43:52;137.20;;;122.93;;
39346;SDS011;26262;49.836;6.632;2024-03-22T03:46:18;35.63;;;32.20;;
39346;SDS011;26262;49.836;6.632;2024-03-22T03:48:43;81.30;;;60.70;;
39346;SDS011;26262;49.836;6.632;2024-03-22T03:51:09;44.03;;;36.80;;
39346;SDS011;26262;49.836;6.632;2024-03-22T03:53:34;15.77;;;13.55;;
39346;SDS011;26262;49.836;6.632;2024-03-22T03:56:00;82.90;;;49.97;;
39346;SDS011;26262;49.836;6.632;2024-03-22T03:58:25;282.33;;;154.80;;
39346;SDS011;26262;49.836;6.632;2024-03-22T04:00:51;170.30;;;129.48;;
39346;SDS011;26262;49.836;6.632;2024-03-22T04:03:16;99.55;;;69.60;;
39346;SDS011;26262;49.836;6.632;2024-03-22T04:05:42;88.82;;;69.68;;
39346;SDS011;26262;49.836;6.632;2024-03-22T04:08:07;86.63;;;72.05;;
39346;SDS011;26262;49.836;6.632;2024-03-22T04:10:33;244.10;;;143.45;;
39346;SDS011;26262;49.836;6.632;2024-03-22T04:12:58;41.40;;;33.60;;
39346;SDS011;26262;49.836;6.632;2024-03-22T04:15:24;358.13;;;133.90;;
39346;SDS011;26262;49.836;6.632;2024-03-22T04:17:49;333.05;;;143.75;;
39346;SDS011;26262;49.836;6.632;2024-03-22T04:20:15;380.45;;;141.70;;
39346;SDS011;26262;49.836;6.632;2024-03-22T04:22:40;357.35;;;145.60;;
39346;SDS011;26262;49.836;6.632;2024-03-22T04:25:06;324.60;;;146.32;;
39346;SDS011;26262;49.836;6.632;2024-03-22T04:27:35;326.67;;;155.80;;
39346;SDS011;26262;49.836;6.632;2024-03-22T04:32:27;305.90;;;152.48;;
39346;SDS011;26262;49.836;6.632;2024-03-22T04:34:52;337.33;;;169.25;;
39346;SDS011;26262;49.836;6.632;2024-03-22T04:37:19;284.38;;;150.05;;
39346;SDS011;26262;49.836;6.632;2024-03-22T04:39:45;393.23;;;151.10;;
39346;SDS011;26262;49.836;6.632;2024-03-22T04:42:11;399.85;;;146.27;;
39346;SDS011;26262;49.836;6.632;2024-03-22T04:44:36;394.35;;;145.20;;
39346;SDS011;26262;49.836;6.632;2024-03-22T04:47:02;395.58;;;150.70;;
39346;SDS011;26262;49.836;6.632;2024-03-22T04:49:28;387.60;;;137.07;;
39346;SDS011;26262;49.836;6.632;2024-03-22T04:51:53;377.80;;;133.90;;
39346;SDS011;26262;49.836;6.632;2024-03-22T04:54:19;401.83;;;161.65;;
39346;SDS011;26262;49.836;6.632;2024-03-22T04:56:44;385.87;;;138.17;;
39346;SDS011;26262;49.836;6.632;2024-03-22T04:59:10;390.40;;;138.70;;
39346;SDS011;26262;49.836;6.632;2024-03-22T05:01:35;379.63;;;130.37;;
39346;SDS011;26262;49.836;6.632;2024-03-22T05:04:01;379.33;;;135.37;;
39346;SDS011;26262;49.836;6.632;2024-03-22T05:06:26;358.97;;;120.57;;
39346;SDS011;26262;49.836;6.632;2024-03-22T05:08:52;365.97;;;126.47;;
39346;SDS011;26262;49.836;6.632;2024-03-22T05:11:17;361.37;;;125.10;;
39346;SDS011;26262;49.836;6.632;2024-03-22T05:13:43;368.50;;;133.97;;
39346;SDS011;26262;49.836;6.632;2024-03-22T05:16:08;368.00;;;127.30;;
39346;SDS011;26262;49.836;6.632;2024-03-22T05:18:36;368.58;;;123.43;;
39346;SDS011;26262;49.836;6.632;2024-03-22T05:21:01;356.50;;;119.13;;
39346;SDS011;26262;49.836;6.632;2024-03-22T05:23:28;366.33;;;125.80;;
39346;SDS011;26262;49.836;6.632;2024-03-22T05:25:53;371.97;;;130.80;;
39346;SDS011;26262;49.836;6.632;2024-03-22T05:28:19;370.77;;;130.13;;
39346;SDS011;26262;49.836;6.632;2024-03-22T05:30:44;374.87;;;131.53;;
39346;SDS011;26262;49.836;6.632;2024-03-22T05:33:10;369.07;;;130.07;;
39346;SDS011;26262;49.836;6.632;2024-03-22T05:35:36;379.40;;;133.87;;
39346;SDS011;26262;49.836;6.632;2024-03-22T05:38:02;365.60;;;127.67;;
39346;SDS011;26262;49.836;6.632;2024-03-22T05:40:29;370.80;;;131.63;;
39346;SDS011;26262;49.836;6.632;2024-03-22T05:42:54;365.00;;;125.53;;
39346;SDS011;26262;49.836;6.632;2024-03-22T05:45:20;393.97;;;150.53;;
39346;SDS011;26262;49.836;6.632;2024-03-22T05:47:45;392.40;;;146.73;;
39346;SDS011;26262;49.836;6.632;2024-03-22T05:50:11;376.87;;;131.30;;
39346;SDS011;26262;49.836;6.632;2024-03-22T05:52:37;365.27;;;125.67;;
39346;SDS011;26262;49.836;6.632;2024-03-22T05:55:02;366.20;;;129.57;;
39346;SDS011;26262;49.836;6.632;2024-03-22T05:57:28;359.70;;;123.97;;
39346;SDS011;26262;49.836;6.632;2024-03-22T05:59:54;364.23;;;125.87;;
39346;SDS011;26262;49.836;6.632;2024-03-22T06:02:19;364.07;;;126.60;;
39346;SDS011;26262;49.836;6.632;2024-03-22T06:04:45;353.10;;;121.43;;
39346;SDS011;26262;49.836;6.632;2024-03-22T06:07:10;364.77;;;129.30;;
39346;SDS011;26262;49.836;6.632;2024-03-22T06:09:37;359.53;;;126.97;;
39346;SDS011;26262;49.836;6.632;2024-03-22T06:12:10;357.23;;;121.17;;
39346;SDS011;26262;49.836;6.632;2024-03-22T06:14:36;353.97;;;118.83;;
39346;SDS011;26262;49.836;6.632;2024-03-22T06:17:03;353.97;;;118.93;;
39346;SDS011;26262;49.836;6.632;2024-03-22T06:19:29;352.42;;;119.88;;
39346;SDS011;26262;49.836;6.632;2024-03-22T06:21:54;353.23;;;119.03;;
39346;SDS011;26262;49.836;6.632;2024-03-22T06:24:20;353.53;;;119.20;;
39346;SDS011;26262;49.836;6.632;2024-03-22T06:26:45;345.20;;;116.93;;
39346;SDS011;26262;49.836;6.632;2024-03-22T06:29:11;345.27;;;116.90;;
39346;SDS011;26262;49.836;6.632;2024-03-22T06:31:37;346.30;;;117.77;;
39346;SDS011;26262;49.836;6.632;2024-03-22T06:34:03;349.13;;;119.10;;
39346;SDS011;26262;49.836;6.632;2024-03-22T06:36:30;351.53;;;121.43;;
39346;SDS011;26262;49.836;6.632;2024-03-22T06:38:57;342.93;;;116.77;;
39346;SDS011;26262;49.836;6.632;2024-03-22T06:41:24;342.60;;;116.70;;
39346;SDS011;26262;49.836;6.632;2024-03-22T06:43:50;341.10;;;116.20;;
39346;SDS011;26262;49.836;6.632;2024-03-22T06:46:15;345.87;;;118.27;;
39346;SDS011;26262;49.836;6.632;2024-03-22T06:48:41;350.97;;;120.00;;
39346;SDS011;26262;49.836;6.632;2024-03-22T06:51:07;347.13;;;119.57;;
39346;SDS011;26262;49.836;6.632;2024-03-22T06:53:32;347.90;;;120.73;;
39346;SDS011;26262;49.836;6.632;2024-03-22T06:55:58;350.33;;;120.30;;
39346;SDS011;26262;49.836;6.632;2024-03-22T06:58:24;346.97;;;119.63;;
39346;SDS011;26262;49.836;6.632;2024-03-22T07:00:50;345.57;;;122.80;;
39346;SDS011;26262;49.836;6.632;2024-03-22T07:03:16;346.70;;;117.93;;
39346;SDS011;26262;49.836;6.632;2024-03-22T07:05:42;344.70;;;118.23;;
39346;SDS011;26262;49.836;6.632;2024-03-22T07:08:08;347.03;;;118.63;;
39346;SDS011;26262;49.836;6.632;2024-03-22T07:10:34;342.97;;;118.17;;
39346;SDS011;26262;49.836;6.632;2024-03-22T07:13:00;340.40;;;116.57;;
39346;SDS011;26262;49.836;6.632;2024-03-22T07:15:26;340.33;;;116.67;;
39346;SDS011;26262;49.836;6.632;2024-03-22T07:17:51;339.57;;;117.77;;
39346;SDS011;26262;49.836;6.632;2024-03-22T07:20:17;343.40;;;117.90;;
39346;SDS011;26262;49.836;6.632;2024-03-22T07:22:43;338.97;;;117.13;;
39346;SDS011;26262;49.836;6.632;2024-03-22T07:25:09;246.43;;;85.20;;
39346;SDS011;26262;49.836;6.632;2024-03-22T07:27:37;230.27;;;76.17;;
39346;SDS011;26262;49.836;6.632;2024-03-22T07:30:03;368.48;;;281.20;;
39346;SDS011;26262;49.836;6.632;2024-03-22T07:32:30;328.87;;;114.70;;
39346;SDS011;26262;49.836;6.632;2024-03-22T07:34:55;330.03;;;115.93;;
39346;SDS011;26262;49.836;6.632;2024-03-22T07:37:21;348.63;;;121.53;;
39346;SDS011;26262;49.836;6.632;2024-03-22T07:39:47;336.17;;;117.70;;
39346;SDS011;26262;49.836;6.632;2024-03-22T07:42:13;337.37;;;118.23;;
39346;SDS011;26262;49.836;6.632;2024-03-22T07:44:38;336.50;;;119.97;;
39346;SDS011;26262;49.836;6.632;2024-03-22T07:47:04;342.93;;;120.07;;
39346;SDS011;26262;49.836;6.632;2024-03-22T07:49:29;338.03;;;119.73;;
39346;SDS011;26262;49.836;6.632;2024-03-22T07:51:56;349.23;;;123.50;;
39346;SDS011;26262;49.836;6.632;2024-03-22T07:54:22;346.07;;;124.57;;
39346;SDS011;26262;49.836;6.632;2024-03-22T07:56:47;349.80;;;126.63;;
39346;SDS011;26262;49.836;6.632;2024-03-22T07:59:13;260.07;;;95.97;;
39346;SDS011;26262;49.836;6.632;2024-03-22T08:01:38;350.50;;;129.47;;
39346;SDS011;26262;49.836;6.632;2024-03-22T08:04:04;349.73;;;127.93;;
39346;SDS011;26262;49.836;6.632;2024-03-22T08:06:29;345.40;;;124.83;;
39346;SDS011;26262;49.836;6.632;2024-03-22T08:08:55;350.50;;;132.20;;
39346;SDS011;26262;49.836;6.632;2024-03-22T08:11:20;242.47;;;88.23;;
39346;SDS011;26262;49.836;6.632;2024-03-22T08:13:46;339.50;;;125.10;;
39346;SDS011;26262;49.836;6.632;2024-03-22T08:16:11;345.57;;;127.40;;
39346;SDS011;26262;49.836;6.632;2024-03-22T08:18:37;343.37;;;125.97;;
39346;SDS011;26262;49.836;6.632;2024-03-22T08:21:02;349.40;;;129.90;;
39346;SDS011;26262;49.836;6.632;2024-03-22T08:23:29;349.60;;;132.40;;
39346;SDS011;26262;49.836;6.632;2024-03-22T08:25:54;353.13;;;140.93;;
39346;SDS011;26262;49.836;6.632;2024-03-22T08:28:21;346.25;;;129.38;;
39346;SDS011;26262;49.836;6.632;2024-03-22T08:30:47;338.90;;;126.73;;
39346;SDS011;26262;49.836;6.632;2024-03-22T08:33:13;350.77;;;133.17;;
39346;SDS011;26262;49.836;6.632;2024-03-22T08:35:39;348.33;;;134.43;;
39346;SDS011;26262;49.836;6.632;2024-03-22T08:38:04;345.90;;;135.13;;
39346;SDS011;26262;49.836;6.632;2024-03-22T08:40:38;342.97;;;134.40;;
39346;SDS011;26262;49.836;6.632;2024-03-22T08:43:04;32.17;;;28.80;;
39346;SDS011;26262;49.836;6.632;2024-03-22T08:45:32;148.27;;;132.35;;
39346;SDS011;26262;49.836;6.632;2024-03-22T08:47:58;110.30;;;69.25;;
39346;SDS011;26262;49.836;6.632;2024-03-22T08:50:23;7.88;;;4.80;;
39346;SDS011;26262;49.836;6.632;2024-03-22T08:52:50;8.20;;;5.85;;
39346;SDS011;26262;49.836;6.632;2024-03-22T08:55:15;10.32;;;5.22;;
39346;SDS011;26262;49.836;6.632;2024-03-22T08:57:41;65.60;;;59.10;;
39346;SDS011;26262;49.836;6.632;2024-03-22T09:00:06;312.48;;;119.07;;
39346;SDS011;26262;49.836;6.632;2024-03-22T09:02:33;9.45;;;5.63;;
39346;SDS011;26262;49.836;6.632;2024-03-22T09:04:59;20.60;;;11.75;;
39346;SDS011;26262;49.836;6.632;2024-03-22T09:07:25;10.10;;;6.47;;
39346;SDS011;26262;49.836;6.632;2024-03-22T09:09:50;10.07;;;7.47;;
39346;SDS011;26262;49.836;6.632;2024-03-22T09:12:16;141.02;;;124.53;;
39346;SDS011;26262;49.836;6.632;2024-03-22T09:14:41;371.40;;;171.98;;
39346;SDS011;26262;49.836;6.632;2024-03-22T09:17:07;373.17;;;186.18;;
39346;SDS011;26262;49.836;6.632;2024-03-22T09:19:32;374.67;;;337.90;;
39346;SDS011;26262;49.836;6.632;2024-03-22T09:21:58;127.72;;;74.15;;
39346;SDS011;26262;49.836;6.632;2024-03-22T09:24:23;65.13;;;33.35;;
39346;SDS011;26262;49.836;6.632;2024-03-22T09:26:49;12.20;;;8.82;;
39346;SDS011;26262;49.836;6.632;2024-03-22T09:29:15;12.25;;;8.15;;
39346;SDS011;26262;49.836;6.632;2024-03-22T09:31:40;10.07;;;8.48;;
39346;SDS011;26262;49.836;6.632;2024-03-22T09:34:06;13.20;;;8.95;;
39346;SDS011;26262;49.836;6.632;2024-03-22T09:36:31;11.15;;;9.25;;
39346;SDS011;26262;49.836;6.632;2024-03-22T09:39:00;13.05;;;9.43;;
39346;SDS011;26262;49.836;6.632;2024-03-22T09:41:29;12.48;;;9.38;;
39346;SDS011;26262;49.836;6.632;2024-03-22T09:43:57;13.02;;;9.45;;
39346;SDS011;26262;49.836;6.632;2024-03-22T09:46:25;14.32;;;8.60;;
39346;SDS011;26262;49.836;6.632;2024-03-22T09:48:52;13.07;;;8.60;;
39346;SDS011;26262;49.836;6.632;2024-03-22T09:51:19;10.80;;;8.77;;
39346;SDS011;26262;49.836;6.632;2024-03-22T09:53:44;12.88;;;8.95;;
39346;SDS011;26262;49.836;6.632;2024-03-22T09:56:13;11.75;;;9.27;;
39346;SDS011;26262;49.836;6.632;2024-03-22T09:58:40;11.00;;;8.70;;
39346;SDS011;26262;49.836;6.632;2024-03-22T10:01:06;11.88;;;10.18;;
39346;SDS011;26262;49.836;6.632;2024-03-22T10:03:32;11.48;;;9.02;;
39346;SDS011;26262;49.836;6.632;2024-03-22T10:05:58;11.63;;;9.10;;
39346;SDS011;26262;49.836;6.632;2024-03-22T10:08:24;11.93;;;9.02;;
39346;SDS011;26262;49.836;6.632;2024-03-22T10:10:49;14.38;;;10.73;;
39346;SDS011;26262;49.836;6.632;2024-03-22T10:13:15;11.50;;;8.75;;
39346;SDS011;26262;49.836;6.632;2024-03-22T10:15:40;11.18;;;9.40;;
39346;SDS011;26262;49.836;6.632;2024-03-22T10:18:06;11.15;;;9.32;;
39346;SDS011;26262;49.836;6.632;2024-03-22T10:20:33;116.32;;;89.93;;
39346;SDS011;26262;49.836;6.632;2024-03-22T10:22:59;373.67;;;202.50;;
39346;SDS011;26262;49.836;6.632;2024-03-22T10:25:25;12.15;;;8.77;;
39346;SDS011;26262;49.836;6.632;2024-03-22T10:27:53;12.73;;;9.95;;
39346;SDS011;26262;49.836;6.632;2024-03-22T10:30:19;13.70;;;10.52;;
39346;SDS011;26262;49.836;6.632;2024-03-22T10:32:45;13.18;;;10.13;;
39346;SDS011;26262;49.836;6.632;2024-03-22T10:35:13;14.52;;;10.05;;
39346;SDS011;26262;49.836;6.632;2024-03-22T10:37:39;15.63;;;10.68;;
39346;SDS011;26262;49.836;6.632;2024-03-22T10:40:06;11.80;;;10.32;;
39346;SDS011;26262;49.836;6.632;2024-03-22T10:42:35;14.38;;;9.93;;
39346;SDS011;26262;49.836;6.632;2024-03-22T10:45:05;13.33;;;10.70;;
39346;SDS011;26262;49.836;6.632;2024-03-22T10:47:33;15.20;;;11.40;;
39346;SDS011;26262;49.836;6.632;2024-03-22T10:50:09;18.17;;;11.95;;
39346;SDS011;26262;49.836;6.632;2024-03-22T10:52:39;15.43;;;10.83;;
39346;SDS011;26262;49.836;6.632;2024-03-22T10:55:47;14.87;;;11.80;;
39346;SDS011;26262;49.836;6.632;2024-03-22T10:58:08;14.55;;;11.43;;
39346;SDS011;26262;49.836;6.632;2024-03-22T11:00:41;14.23;;;11.48;;
39346;SDS011;26262;49.836;6.632;2024-03-22T11:05:33;14.75;;;12.07;;
39346;SDS011;26262;49.836;6.632;2024-03-22T11:10:33;18.40;;;13.35;;
39346;SDS011;26262;49.836;6.632;2024-03-22T11:13:02;18.13;;;13.10;;
39346;SDS011;26262;49.836;6.632;2024-03-22T11:15:29;18.75;;;12.15;;
39346;SDS011;26262;49.836;6.632;2024-03-22T11:17:55;15.20;;;12.77;;
39346;SDS011;26262;49.836;6.632;2024-03-22T11:20:21;16.23;;;10.32;;
39346;SDS011;26262;49.836;6.632;2024-03-22T11:22:46;14.20;;;12.05;;
39346;SDS011;26262;49.836;6.632;2024-03-22T11:25:12;15.73;;;11.95;;
39346;SDS011;26262;49.836;6.632;2024-03-22T11:27:38;17.33;;;13.15;;
39346;SDS011;26262;49.836;6.632;2024-03-22T11:30:04;16.27;;;12.65;;
39346;SDS011;26262;49.836;6.632;2024-03-22T11:32:30;15.73;;;12.85;;
39346;SDS011;26262;49.836;6.632;2024-03-22T11:34:56;17.55;;;13.95;;
39346;SDS011;26262;49.836;6.632;2024-03-22T11:37:22;17.20;;;13.95;;
39346;SDS011;26262;49.836;6.632;2024-03-22T11:39:48;18.27;;;12.68;;
39346;SDS011;26262;49.836;6.632;2024-03-22T11:42:14;16.45;;;13.00;;
39346;SDS011;26262;49.836;6.632;2024-03-22T11:44:42;19.05;;;13.95;;
39346;SDS011;26262;49.836;6.632;2024-03-22T11:47:07;13.65;;;10.73;;
39346;SDS011;26262;49.836;6.632;2024-03-22T11:49:34;14.40;;;12.30;;
39346;SDS011;26262;49.836;6.632;2024-03-22T11:52:00;13.55;;;10.07;;
39346;SDS011;26262;49.836;6.632;2024-03-22T11:54:26;13.25;;;11.82;;
39346;SDS011;26262;49.836;6.632;2024-03-22T11:56:51;16.15;;;12.40;;
39346;SDS011;26262;49.836;6.632;2024-03-22T11:59:20;78.47;;;71.88;;
39346;SDS011;26262;49.836;6.632;2024-03-22T12:01:46;13.65;;;10.68;;
39346;SDS011;26262;49.836;6.632;2024-03-22T12:04:12;30.50;;;27.45;;
39346;SDS011;26262;49.836;6.632;2024-03-22T12:06:44;431.85;;;343.80;;
39346;SDS011;26262;49.836;6.632;2024-03-22T12:09:10;433.90;;;344.73;;
39346;SDS011;26262;49.836;6.632;2024-03-22T12:11:39;435.38;;;355.08;;
39346;SDS011;26262;49.836;6.632;2024-03-22T12:14:05;429.90;;;343.77;;
39346;SDS011;26262;49.836;6.632;2024-03-22T12:16:31;410.83;;;289.67;;
39346;SDS011;26262;49.836;6.632;2024-03-22T12:18:57;411.80;;;283.53;;
39346;SDS011;26262;49.836;6.632;2024-03-22T12:21:23;411.73;;;279.83;;
39346;SDS011;26262;49.836;6.632;2024-03-22T12:23:49;398.87;;;251.03;;
39346;SDS011;26262;49.836;6.632;2024-03-22T12:26:14;393.97;;;246.03;;
39346;SDS011;26262;49.836;6.632;2024-03-22T12:28:40;416.40;;;291.02;;
39346;SDS011;26262;49.836;6.632;2024-03-22T12:31:05;413.98;;;288.05;;
39346;SDS011;26262;49.836;6.632;2024-03-22T12:33:32;612.95;;;559.63;;
39346;SDS011;26262;49.836;6.632;2024-03-22T12:35:58;422.38;;;339.85;;
39346;SDS011;26262;49.836;6.632;2024-03-22T12:38:23;408.92;;;293.33;;
39346;SDS011;26262;49.836;6.632;2024-03-22T12:40:49;401.20;;;263.90;;
39346;SDS011;26262;49.836;6.632;2024-03-22T12:43:15;398.37;;;259.30;;
39346;SDS011;26262;49.836;6.632;2024-03-22T12:45:40;398.87;;;245.63;;
39346;SDS011;26262;49.836;6.632;2024-03-22T12:48:06;399.17;;;255.17;;
39346;SDS011;26262;49.836;6.632;2024-03-22T12:50:31;399.27;;;255.37;;
39346;SDS011;26262;49.836;6.632;2024-03-22T12:52:58;395.45;;;245.82;;
39346;SDS011;26262;49.836;6.632;2024-03-22T12:55:24;397.90;;;251.43;;
39346;SDS011;26262;49.836;6.632;2024-03-22T12:57:51;393.10;;;242.77;;
39346;SDS011;26262;49.836;6.632;2024-03-22T13:00:16;390.03;;;242.50;;
39346;SDS011;26262;49.836;6.632;2024-03-22T13:02:45;391.20;;;245.23;;
39346;SDS011;26262;49.836;6.632;2024-03-22T13:05:11;389.63;;;244.73;;
39346;SDS011;26262;49.836;6.632;2024-03-22T13:07:37;387.60;;;246.97;;
39346;SDS011;26262;49.836;6.632;2024-03-22T13:10:02;393.50;;;262.73;;
39346;SDS011;26262;49.836;6.632;2024-03-22T13:12:28;389.53;;;256.57;;
39346;SDS011;26262;49.836;6.632;2024-03-22T13:14:56;386.05;;;252.13;;
39346;SDS011;26262;49.836;6.632;2024-03-22T13:17:22;393.47;;;267.97;;
39346;SDS011;26262;49.836;6.632;2024-03-22T13:19:48;387.53;;;260.87;;
39346;SDS011;26262;49.836;6.632;2024-03-22T13:22:14;392.03;;;279.83;;
39346;SDS011;26262;49.836;6.632;2024-03-22T13:24:43;391.13;;;284.53;;
39346;SDS011;26262;49.836;6.632;2024-03-22T13:27:12;399.53;;;297.70;;
39346;SDS011;26262;49.836;6.632;2024-03-22T13:29:38;393.00;;;286.23;;
39346;SDS011;26262;49.836;6.632;2024-03-22T13:32:04;395.77;;;292.27;;
39346;SDS011;26262;49.836;6.632;2024-03-22T13:34:32;387.42;;;266.80;;
39346;SDS011;26262;49.836;6.632;2024-03-22T13:37:01;395.97;;;267.47;;
39346;SDS011;26262;49.836;6.632;2024-03-22T13:39:27;390.27;;;261.20;;
39346;SDS011;26262;49.836;6.632;2024-03-22T13:41:54;388.75;;;259.38;;
39346;SDS011;26262;49.836;6.632;2024-03-22T13:44:20;391.20;;;264.10;;
39346;SDS011;26262;49.836;6.632;2024-03-22T13:46:46;390.20;;;265.87;;
39346;SDS011;26262;49.836;6.632;2024-03-22T13:49:15;388.30;;;263.17;;
39346;SDS011;26262;49.836;6.632;2024-03-22T13:51:42;382.67;;;251.93;;
39346;SDS011;26262;49.836;6.632;2024-03-22T13:54:08;386.43;;;257.10;;
39346;SDS011;26262;49.836;6.632;2024-03-22T13:56:35;284.67;;;179.07;;
39346;SDS011;26262;49.836;6.632;2024-03-22T13:59:00;281.13;;;171.50;;
39346;SDS011;26262;49.836;6.632;2024-03-22T14:01:27;384.80;;;247.07;;
39346;SDS011;26262;49.836;6.632;2024-03-22T14:03:52;277.37;;;176.30;;
39346;SDS011;26262;49.836;6.632;2024-03-22T14:06:18;376.43;;;223.57;;
39346;SDS011;26262;49.836;6.632;2024-03-22T14:08:43;376.83;;;227.67;;